sensor_id;sensor_type;location;lat;lon;timestamp;P1;durP1;ratioP1;P2;durP2;ratioP2
28180;SDS011;15464;50.988;10.318;2023-09-19T00:00:43;2.45;;;1.48;;
28180;SDS011;15464;50.988;10.318;2023-09-19T00:03:14;3.67;;;1.10;;
28180;SDS011;15464;50.988;10.318;2023-09-19T00:05:41;1.95;;;1.27;;
28180;SDS011;15464;50.988;10.318;2023-09-19T00:08:11;2.55;;;1.10;;
28180;SDS011;15464;50.988;10.318;2023-09-19T00:10:40;2.97;;;1.08;;
28180;SDS011;15464;50.988;10.318;2023-09-19T00:13:08;4.05;;;1.13;;
28180;SDS011;15464;50.988;10.318;2023-09-19T00:15:40;3.45;;;1.40;;
28180;SDS011;15464;50.988;10.318;2023-09-19T00:18:09;1.77;;;1.00;;
28180;SDS011;15464;50.988;10.318;2023-09-19T00:20:36;1.63;;;1.10;;
28180;SDS011;15464;50.988;10.318;2023-09-19T00:23:03;3.42;;;1.45;;
28180;SDS011;15464;50.988;10.318;2023-09-19T00:25:31;2.22;;;1.30;;
28180;SDS011;15464;50.988;10.318;2023-09-19T00:28:01;2.47;;;1.20;;
28180;SDS011;15464;50.988;10.318;2023-09-19T00:30:28;1.85;;;1.30;;
28180;SDS011;15464;50.988;10.318;2023-09-19T00:32:55;3.67;;;1.60;;
28180;SDS011;15464;50.988;10.318;2023-09-19T00:35:22;3.13;;;1.30;;
28180;SDS011;15464;50.988;10.318;2023-09-19T00:37:52;1.98;;;1.10;;
28180;SDS011;15464;50.988;10.318;2023-09-19T00:40:19;1.40;;;1.10;;
28180;SDS011;15464;50.988;10.318;2023-09-19T00:42:48;3.90;;;1.30;;
28180;SDS011;15464;50.988;10.318;2023-09-19T00:45:17;1.98;;;1.23;;
28180;SDS011;15464;50.988;10.318;2023-09-19T00:47:45;5.32;;;1.30;;
28180;SDS011;15464;50.988;10.318;2023-09-19T00:50:19;5.88;;;1.20;;
28180;SDS011;15464;50.988;10.318;2023-09-19T00:52:49;1.90;;;1.20;;
28180;SDS011;15464;50.988;10.318;2023-09-19T00:55:19;1.48;;;1.00;;
28180;SDS011;15464;50.988;10.318;2023-09-19T00:57:46;1.27;;;1.10;;
28180;SDS011;15464;50.988;10.318;2023-09-19T01:00:16;2.28;;;1.10;;
28180;SDS011;15464;50.988;10.318;2023-09-19T01:02:47;4.25;;;1.30;;
28180;SDS011;15464;50.988;10.318;2023-09-19T01:05:14;2.90;;;1.17;;
28180;SDS011;15464;50.988;10.318;2023-09-19T01:07:42;2.60;;;1.17;;
28180;SDS011;15464;50.988;10.318;2023-09-19T01:10:11;3.95;;;1.20;;
28180;SDS011;15464;50.988;10.318;2023-09-19T01:31:59;2.20;;;1.10;;
28180;SDS011;15464;50.988;10.318;2023-09-19T01:34:47;4.07;;;1.63;;
28180;SDS011;15464;50.988;10.318;2023-09-19T01:37:16;2.67;;;1.40;;
28180;SDS011;15464;50.988;10.318;2023-09-19T01:39:57;3.35;;;1.48;;
28180;SDS011;15464;50.988;10.318;2023-09-19T01:45:27;3.33;;;1.15;;
28180;SDS011;15464;50.988;10.318;2023-09-19T01:48:30;1.80;;;1.20;;
28180;SDS011;15464;50.988;10.318;2023-09-19T01:51:07;1.88;;;1.10;;
28180;SDS011;15464;50.988;10.318;2023-09-19T01:53:44;3.63;;;1.52;;
28180;SDS011;15464;50.988;10.318;2023-09-19T01:56:34;1.92;;;1.30;;
28180;SDS011;15464;50.988;10.318;2023-09-19T01:59:10;2.42;;;1.58;;
28180;SDS011;15464;50.988;10.318;2023-09-19T02:01:40;2.38;;;1.40;;
28180;SDS011;15464;50.988;10.318;2023-09-19T02:04:11;2.20;;;1.30;;
28180;SDS011;15464;50.988;10.318;2023-09-19T02:06:41;2.35;;;1.30;;
28180;SDS011;15464;50.988;10.318;2023-09-19T02:09:08;1.92;;;1.48;;
28180;SDS011;15464;50.988;10.318;2023-09-19T02:11:35;3.40;;;1.42;;
28180;SDS011;15464;50.988;10.318;2023-09-19T02:14:03;2.20;;;1.40;;
28180;SDS011;15464;50.988;10.318;2023-09-19T02:16:35;3.03;;;1.50;;
28180;SDS011;15464;50.988;10.318;2023-09-19T02:19:02;1.67;;;1.30;;
28180;SDS011;15464;50.988;10.318;2023-09-19T02:21:32;2.20;;;1.45;;
28180;SDS011;15464;50.988;10.318;2023-09-19T02:23:59;1.63;;;1.45;;
28180;SDS011;15464;50.988;10.318;2023-09-19T02:26:25;2.13;;;1.40;;
28180;SDS011;15464;50.988;10.318;2023-09-19T02:28:54;3.60;;;1.58;;
28180;SDS011;15464;50.988;10.318;2023-09-19T02:31:20;3.75;;;1.60;;
28180;SDS011;15464;50.988;10.318;2023-09-19T02:33:47;2.25;;;1.50;;
28180;SDS011;15464;50.988;10.318;2023-09-19T02:36:14;3.50;;;1.40;;
28180;SDS011;15464;50.988;10.318;2023-09-19T02:38:44;2.00;;;1.30;;
28180;SDS011;15464;50.988;10.318;2023-09-19T02:41:10;2.80;;;1.40;;
28180;SDS011;15464;50.988;10.318;2023-09-19T02:43:38;4.28;;;1.70;;
28180;SDS011;15464;50.988;10.318;2023-09-19T02:46:05;2.45;;;1.27;;
28180;SDS011;15464;50.988;10.318;2023-09-19T02:48:33;1.52;;;1.20;;
28180;SDS011;15464;50.988;10.318;2023-09-19T02:51:00;3.60;;;1.40;;
28180;SDS011;15464;50.988;10.318;2023-09-19T02:53:27;2.63;;;1.40;;
28180;SDS011;15464;50.988;10.318;2023-09-19T02:55:54;2.67;;;1.48;;
28180;SDS011;15464;50.988;10.318;2023-09-19T02:58:21;2.47;;;1.48;;
28180;SDS011;15464;50.988;10.318;2023-09-19T03:00:49;1.45;;;1.10;;
28180;SDS011;15464;50.988;10.318;2023-09-19T03:03:38;3.38;;;1.42;;
28180;SDS011;15464;50.988;10.318;2023-09-19T03:06:06;2.83;;;1.37;;
28180;SDS011;15464;50.988;10.318;2023-09-19T03:08:35;1.90;;;1.30;;
28180;SDS011;15464;50.988;10.318;2023-09-19T03:11:05;3.13;;;1.50;;
28180;SDS011;15464;50.988;10.318;2023-09-19T03:13:34;1.58;;;1.30;;
28180;SDS011;15464;50.988;10.318;2023-09-19T03:16:04;1.73;;;1.20;;
28180;SDS011;15464;50.988;10.318;2023-09-19T03:18:33;2.28;;;1.35;;
28180;SDS011;15464;50.988;10.318;2023-09-19T03:21:01;3.28;;;1.50;;
28180;SDS011;15464;50.988;10.318;2023-09-19T03:23:28;2.03;;;1.20;;
28180;SDS011;15464;50.988;10.318;2023-09-19T03:25:55;1.95;;;1.42;;
28180;SDS011;15464;50.988;10.318;2023-09-19T03:28:22;2.70;;;1.52;;
28180;SDS011;15464;50.988;10.318;2023-09-19T03:31:02;1.73;;;1.20;;
28180;SDS011;15464;50.988;10.318;2023-09-19T03:33:30;4.15;;;1.85;;
28180;SDS011;15464;50.988;10.318;2023-09-19T03:36:01;1.83;;;1.00;;
28180;SDS011;15464;50.988;10.318;2023-09-19T03:38:31;2.85;;;1.30;;
28180;SDS011;15464;50.988;10.318;2023-09-19T03:40:58;3.58;;;1.50;;
28180;SDS011;15464;50.988;10.318;2023-09-19T03:43:25;2.22;;;1.30;;
28180;SDS011;15464;50.988;10.318;2023-09-19T03:45:53;2.85;;;1.40;;
28180;SDS011;15464;50.988;10.318;2023-09-19T03:48:20;2.60;;;1.47;;
28180;SDS011;15464;50.988;10.318;2023-09-19T03:50:48;4.85;;;1.40;;
28180;SDS011;15464;50.988;10.318;2023-09-19T03:53:14;2.85;;;1.33;;
28180;SDS011;15464;50.988;10.318;2023-09-19T03:55:41;2.78;;;1.08;;
28180;SDS011;15464;50.988;10.318;2023-09-19T03:58:10;4.78;;;1.40;;
28180;SDS011;15464;50.988;10.318;2023-09-19T04:00:37;4.22;;;1.30;;
28180;SDS011;15464;50.988;10.318;2023-09-19T04:03:05;2.30;;;1.13;;
28180;SDS011;15464;50.988;10.318;2023-09-19T04:05:33;2.45;;;1.48;;
28180;SDS011;15464;50.988;10.318;2023-09-19T04:08:00;2.55;;;1.40;;
28180;SDS011;15464;50.988;10.318;2023-09-19T04:10:27;3.92;;;1.67;;
28180;SDS011;15464;50.988;10.318;2023-09-19T04:12:55;3.53;;;1.38;;
28180;SDS011;15464;50.988;10.318;2023-09-19T04:15:23;2.97;;;1.40;;
28180;SDS011;15464;50.988;10.318;2023-09-19T04:17:50;1.52;;;1.17;;
28180;SDS011;15464;50.988;10.318;2023-09-19T04:20:18;2.20;;;1.55;;
28180;SDS011;15464;50.988;10.318;2023-09-19T04:22:51;2.65;;;1.55;;
28180;SDS011;15464;50.988;10.318;2023-09-19T04:25:18;3.50;;;1.40;;
28180;SDS011;15464;50.988;10.318;2023-09-19T04:27:46;3.17;;;1.52;;
28180;SDS011;15464;50.988;10.318;2023-09-19T04:30:12;3.17;;;1.40;;
28180;SDS011;15464;50.988;10.318;2023-09-19T04:32:41;2.67;;;1.40;;
28180;SDS011;15464;50.988;10.318;2023-09-19T04:35:08;5.72;;;1.95;;
28180;SDS011;15464;50.988;10.318;2023-09-19T04:37:40;2.43;;;1.37;;
28180;SDS011;15464;50.988;10.318;2023-09-19T04:40:08;2.58;;;1.50;;
28180;SDS011;15464;50.988;10.318;2023-09-19T04:42:39;4.20;;;2.45;;
28180;SDS011;15464;50.988;10.318;2023-09-19T04:45:07;2.97;;;1.85;;
28180;SDS011;15464;50.988;10.318;2023-09-19T04:47:36;3.78;;;1.52;;
28180;SDS011;15464;50.988;10.318;2023-09-19T04:50:06;3.47;;;1.30;;
28180;SDS011;15464;50.988;10.318;2023-09-19T04:52:34;2.80;;;1.98;;
28180;SDS011;15464;50.988;10.318;2023-09-19T04:55:01;6.13;;;1.63;;
28180;SDS011;15464;50.988;10.318;2023-09-19T04:57:28;1.70;;;1.42;;
28180;SDS011;15464;50.988;10.318;2023-09-19T04:59:55;4.60;;;1.50;;
28180;SDS011;15464;50.988;10.318;2023-09-19T05:02:21;3.33;;;1.70;;
28180;SDS011;15464;50.988;10.318;2023-09-19T05:04:48;3.83;;;1.40;;
28180;SDS011;15464;50.988;10.318;2023-09-19T05:07:15;4.78;;;1.90;;
28180;SDS011;15464;50.988;10.318;2023-09-19T05:09:43;2.97;;;1.70;;
28180;SDS011;15464;50.988;10.318;2023-09-19T05:12:10;4.28;;;1.48;;
28180;SDS011;15464;50.988;10.318;2023-09-19T05:14:37;5.55;;;1.80;;
28180;SDS011;15464;50.988;10.318;2023-09-19T05:17:03;2.72;;;1.40;;
28180;SDS011;15464;50.988;10.318;2023-09-19T05:19:30;2.75;;;1.45;;
28180;SDS011;15464;50.988;10.318;2023-09-19T05:21:57;3.25;;;1.75;;
28180;SDS011;15464;50.988;10.318;2023-09-19T05:24:24;3.38;;;1.65;;
28180;SDS011;15464;50.988;10.318;2023-09-19T05:26:53;4.32;;;1.40;;
28180;SDS011;15464;50.988;10.318;2023-09-19T05:29:21;2.50;;;1.77;;
28180;SDS011;15464;50.988;10.318;2023-09-19T05:31:48;2.80;;;1.60;;
28180;SDS011;15464;50.988;10.318;2023-09-19T05:34:16;3.63;;;1.42;;
28180;SDS011;15464;50.988;10.318;2023-09-19T05:36:43;3.30;;;1.45;;
28180;SDS011;15464;50.988;10.318;2023-09-19T05:39:09;3.92;;;1.50;;
28180;SDS011;15464;50.988;10.318;2023-09-19T05:41:36;4.82;;;1.40;;
28180;SDS011;15464;50.988;10.318;2023-09-19T05:44:03;4.35;;;1.58;;
28180;SDS011;15464;50.988;10.318;2023-09-19T05:46:30;5.22;;;1.80;;
28180;SDS011;15464;50.988;10.318;2023-09-19T05:48:56;5.25;;;1.75;;
28180;SDS011;15464;50.988;10.318;2023-09-19T05:51:23;4.70;;;1.60;;
28180;SDS011;15464;50.988;10.318;2023-09-19T05:53:50;4.00;;;1.65;;
28180;SDS011;15464;50.988;10.318;2023-09-19T05:56:18;5.30;;;1.63;;
28180;SDS011;15464;50.988;10.318;2023-09-19T05:58:46;3.95;;;1.60;;
28180;SDS011;15464;50.988;10.318;2023-09-19T06:01:12;4.97;;;1.60;;
28180;SDS011;15464;50.988;10.318;2023-09-19T06:03:39;3.00;;;1.58;;
28180;SDS011;15464;50.988;10.318;2023-09-19T06:06:06;5.47;;;2.03;;
28180;SDS011;15464;50.988;10.318;2023-09-19T06:08:33;4.25;;;1.70;;
28180;SDS011;15464;50.988;10.318;2023-09-19T06:11:00;4.60;;;1.60;;
28180;SDS011;15464;50.988;10.318;2023-09-19T06:13:29;3.10;;;1.60;;
28180;SDS011;15464;50.988;10.318;2023-09-19T06:15:56;2.38;;;1.10;;
28180;SDS011;15464;50.988;10.318;2023-09-19T06:18:23;4.95;;;1.70;;
28180;SDS011;15464;50.988;10.318;2023-09-19T06:23:20;7.82;;;1.98;;
28180;SDS011;15464;50.988;10.318;2023-09-19T06:25:47;3.38;;;1.40;;
28180;SDS011;15464;50.988;10.318;2023-09-19T06:28:15;2.70;;;1.38;;
28180;SDS011;15464;50.988;10.318;2023-09-19T06:30:44;3.22;;;1.50;;
28180;SDS011;15464;50.988;10.318;2023-09-19T06:33:11;3.20;;;1.35;;
28180;SDS011;15464;50.988;10.318;2023-09-19T06:35:43;3.45;;;1.70;;
28180;SDS011;15464;50.988;10.318;2023-09-19T06:38:13;4.45;;;1.70;;
28180;SDS011;15464;50.988;10.318;2023-09-19T06:40:41;3.00;;;1.37;;
28180;SDS011;15464;50.988;10.318;2023-09-19T06:43:09;4.75;;;1.67;;
28180;SDS011;15464;50.988;10.318;2023-09-19T06:45:37;3.65;;;1.65;;
28180;SDS011;15464;50.988;10.318;2023-09-19T06:48:03;4.95;;;1.52;;
28180;SDS011;15464;50.988;10.318;2023-09-19T06:50:31;4.30;;;1.65;;
28180;SDS011;15464;50.988;10.318;2023-09-19T06:52:59;3.38;;;1.60;;
28180;SDS011;15464;50.988;10.318;2023-09-19T06:55:27;6.40;;;1.80;;
28180;SDS011;15464;50.988;10.318;2023-09-19T06:57:59;7.43;;;1.38;;
28180;SDS011;15464;50.988;10.318;2023-09-19T07:00:26;3.63;;;1.75;;
28180;SDS011;15464;50.988;10.318;2023-09-19T07:05:31;3.60;;;1.38;;
28180;SDS011;15464;50.988;10.318;2023-09-19T07:07:59;5.32;;;1.75;;
28180;SDS011;15464;50.988;10.318;2023-09-19T07:10:27;5.05;;;2.13;;
28180;SDS011;15464;50.988;10.318;2023-09-19T07:12:55;4.78;;;1.70;;
28180;SDS011;15464;50.988;10.318;2023-09-19T07:15:35;4.13;;;1.75;;
28180;SDS011;15464;50.988;10.318;2023-09-19T07:18:05;5.90;;;1.85;;
28180;SDS011;15464;50.988;10.318;2023-09-19T07:20:33;6.38;;;1.70;;
28180;SDS011;15464;50.988;10.318;2023-09-19T07:23:01;6.03;;;2.08;;
28180;SDS011;15464;50.988;10.318;2023-09-19T07:25:28;5.40;;;1.85;;
28180;SDS011;15464;50.988;10.318;2023-09-19T07:27:56;6.95;;;2.25;;
28180;SDS011;15464;50.988;10.318;2023-09-19T07:30:27;7.07;;;1.90;;
28180;SDS011;15464;50.988;10.318;2023-09-19T07:32:54;7.68;;;2.33;;
28180;SDS011;15464;50.988;10.318;2023-09-19T07:35:21;10.07;;;2.17;;
28180;SDS011;15464;50.988;10.318;2023-09-19T07:37:48;5.68;;;1.85;;
28180;SDS011;15464;50.988;10.318;2023-09-19T07:40:17;5.25;;;1.83;;
28180;SDS011;15464;50.988;10.318;2023-09-19T07:42:44;4.65;;;2.05;;
28180;SDS011;15464;50.988;10.318;2023-09-19T07:47:47;7.85;;;2.05;;
28180;SDS011;15464;50.988;10.318;2023-09-19T07:50:18;5.82;;;2.10;;
28180;SDS011;15464;50.988;10.318;2023-09-19T07:52:46;7.13;;;2.10;;
28180;SDS011;15464;50.988;10.318;2023-09-19T07:55:14;7.35;;;1.88;;
28180;SDS011;15464;50.988;10.318;2023-09-19T07:57:46;6.70;;;2.45;;
28180;SDS011;15464;50.988;10.318;2023-09-19T08:00:13;4.88;;;1.77;;
28180;SDS011;15464;50.988;10.318;2023-09-19T08:02:40;7.57;;;2.45;;
28180;SDS011;15464;50.988;10.318;2023-09-19T08:05:08;5.35;;;1.77;;
28180;SDS011;15464;50.988;10.318;2023-09-19T08:07:40;4.38;;;1.60;;
28180;SDS011;15464;50.988;10.318;2023-09-19T08:10:09;5.90;;;2.00;;
28180;SDS011;15464;50.988;10.318;2023-09-19T08:12:40;6.88;;;1.90;;
28180;SDS011;15464;50.988;10.318;2023-09-19T08:15:13;5.30;;;1.88;;
28180;SDS011;15464;50.988;10.318;2023-09-19T08:17:41;6.45;;;2.10;;
28180;SDS011;15464;50.988;10.318;2023-09-19T08:20:08;4.55;;;1.98;;
28180;SDS011;15464;50.988;10.318;2023-09-19T08:22:52;5.05;;;2.10;;
28180;SDS011;15464;50.988;10.318;2023-09-19T08:25:21;5.90;;;1.90;;
28180;SDS011;15464;50.988;10.318;2023-09-19T08:27:49;4.40;;;1.75;;
28180;SDS011;15464;50.988;10.318;2023-09-19T08:30:17;5.63;;;1.90;;
28180;SDS011;15464;50.988;10.318;2023-09-19T08:32:51;6.63;;;2.13;;
28180;SDS011;15464;50.988;10.318;2023-09-19T08:35:18;4.88;;;1.70;;
28180;SDS011;15464;50.988;10.318;2023-09-19T08:37:46;6.60;;;1.80;;
28180;SDS011;15464;50.988;10.318;2023-09-19T08:40:13;6.07;;;2.00;;
28180;SDS011;15464;50.988;10.318;2023-09-19T08:45:20;5.82;;;1.52;;
28180;SDS011;15464;50.988;10.318;2023-09-19T08:50:53;5.80;;;2.08;;
28180;SDS011;15464;50.988;10.318;2023-09-19T08:56:16;60.97;;;5.40;;
28180;SDS011;15464;50.988;10.318;2023-09-19T08:58:46;6.47;;;2.25;;
28180;SDS011;15464;50.988;10.318;2023-09-19T09:01:20;6.43;;;2.13;;
28180;SDS011;15464;50.988;10.318;2023-09-19T09:03:54;5.80;;;1.65;;
28180;SDS011;15464;50.988;10.318;2023-09-19T09:06:23;6.07;;;2.27;;
28180;SDS011;15464;50.988;10.318;2023-09-19T09:08:51;6.23;;;1.77;;
28180;SDS011;15464;50.988;10.318;2023-09-19T09:11:18;4.68;;;1.90;;
28180;SDS011;15464;50.988;10.318;2023-09-19T09:13:45;7.10;;;2.03;;
28180;SDS011;15464;50.988;10.318;2023-09-19T09:16:14;3.58;;;1.52;;
28180;SDS011;15464;50.988;10.318;2023-09-19T09:18:46;3.97;;;1.80;;
28180;SDS011;15464;50.988;10.318;2023-09-19T09:21:20;5.22;;;1.80;;
28180;SDS011;15464;50.988;10.318;2023-09-19T09:23:48;3.80;;;1.80;;
28180;SDS011;15464;50.988;10.318;2023-09-19T09:29:05;4.25;;;1.83;;
28180;SDS011;15464;50.988;10.318;2023-09-19T09:31:32;3.35;;;1.35;;
28180;SDS011;15464;50.988;10.318;2023-09-19T09:33:59;4.65;;;1.40;;
28180;SDS011;15464;50.988;10.318;2023-09-19T09:36:36;5.40;;;1.42;;
28180;SDS011;15464;50.988;10.318;2023-09-19T09:39:04;5.00;;;1.67;;
28180;SDS011;15464;50.988;10.318;2023-09-19T09:41:51;5.07;;;1.95;;
28180;SDS011;15464;50.988;10.318;2023-09-19T09:44:18;4.68;;;1.30;;
28180;SDS011;15464;50.988;10.318;2023-09-19T09:46:46;3.97;;;1.50;;
28180;SDS011;15464;50.988;10.318;2023-09-19T09:49:26;6.05;;;1.70;;
28180;SDS011;15464;50.988;10.318;2023-09-19T09:52:03;3.78;;;1.60;;
28180;SDS011;15464;50.988;10.318;2023-09-19T09:55:00;2.38;;;1.42;;
28180;SDS011;15464;50.988;10.318;2023-09-19T09:57:32;4.30;;;1.42;;
28180;SDS011;15464;50.988;10.318;2023-09-19T10:00:00;7.03;;;2.25;;
28180;SDS011;15464;50.988;10.318;2023-09-19T10:02:36;3.03;;;1.33;;
28180;SDS011;15464;50.988;10.318;2023-09-19T10:05:11;4.28;;;1.63;;
28180;SDS011;15464;50.988;10.318;2023-09-19T10:08:10;4.90;;;1.95;;
28180;SDS011;15464;50.988;10.318;2023-09-19T10:10:39;6.13;;;1.38;;
28180;SDS011;15464;50.988;10.318;2023-09-19T10:13:10;4.32;;;1.40;;
28180;SDS011;15464;50.988;10.318;2023-09-19T10:15:48;3.13;;;1.50;;
28180;SDS011;15464;50.988;10.318;2023-09-19T10:21:05;3.28;;;1.70;;
28180;SDS011;15464;50.988;10.318;2023-09-19T10:23:36;1.98;;;1.40;;
28180;SDS011;15464;50.988;10.318;2023-09-19T10:26:04;2.85;;;1.58;;
28180;SDS011;15464;50.988;10.318;2023-09-19T10:28:31;2.92;;;1.30;;
28180;SDS011;15464;50.988;10.318;2023-09-19T10:31:00;2.63;;;1.70;;
28180;SDS011;15464;50.988;10.318;2023-09-19T10:33:28;4.22;;;1.60;;
28180;SDS011;15464;50.988;10.318;2023-09-19T10:36:02;4.78;;;1.70;;
28180;SDS011;15464;50.988;10.318;2023-09-19T10:38:31;5.72;;;2.65;;
28180;SDS011;15464;50.988;10.318;2023-09-19T10:40:59;4.43;;;1.80;;
28180;SDS011;15464;50.988;10.318;2023-09-19T10:43:30;3.63;;;1.65;;
28180;SDS011;15464;50.988;10.318;2023-09-19T10:46:03;4.90;;;2.15;;
28180;SDS011;15464;50.988;10.318;2023-09-19T10:48:34;3.67;;;1.73;;
28180;SDS011;15464;50.988;10.318;2023-09-19T10:51:06;3.90;;;1.75;;
28180;SDS011;15464;50.988;10.318;2023-09-19T10:53:47;7.03;;;2.30;;
28180;SDS011;15464;50.988;10.318;2023-09-19T10:56:19;6.82;;;2.35;;
28180;SDS011;15464;50.988;10.318;2023-09-19T10:59:10;7.75;;;2.17;;
28180;SDS011;15464;50.988;10.318;2023-09-19T11:01:43;5.53;;;2.25;;
28180;SDS011;15464;50.988;10.318;2023-09-19T11:07:11;4.45;;;1.92;;
28180;SDS011;15464;50.988;10.318;2023-09-19T11:15:00;5.13;;;2.00;;
28180;SDS011;15464;50.988;10.318;2023-09-19T11:17:35;4.90;;;2.22;;
28180;SDS011;15464;50.988;10.318;2023-09-19T11:30:36;5.85;;;2.20;;
28180;SDS011;15464;50.988;10.318;2023-09-19T11:33:17;5.25;;;1.75;;
28180;SDS011;15464;50.988;10.318;2023-09-19T11:43:53;6.03;;;2.35;;
28180;SDS011;15464;50.988;10.318;2023-09-19T11:46:33;5.15;;;2.25;;
28180;SDS011;15464;50.988;10.318;2023-09-19T11:49:07;7.20;;;2.25;;
28180;SDS011;15464;50.988;10.318;2023-09-19T11:51:42;7.25;;;2.83;;
28180;SDS011;15464;50.988;10.318;2023-09-19T11:54:11;7.50;;;2.05;;
28180;SDS011;15464;50.988;10.318;2023-09-19T11:56:45;5.13;;;2.38;;
28180;SDS011;15464;50.988;10.318;2023-09-19T11:59:22;5.25;;;2.75;;
28180;SDS011;15464;50.988;10.318;2023-09-19T12:01:53;8.30;;;2.35;;
28180;SDS011;15464;50.988;10.318;2023-09-19T12:04:33;4.57;;;1.95;;
28180;SDS011;15464;50.988;10.318;2023-09-19T12:07:06;5.35;;;2.00;;
28180;SDS011;15464;50.988;10.318;2023-09-19T12:09:40;6.00;;;2.80;;
28180;SDS011;15464;50.988;10.318;2023-09-19T12:12:22;5.05;;;2.13;;
28180;SDS011;15464;50.988;10.318;2023-09-19T12:14:55;4.80;;;2.05;;
28180;SDS011;15464;50.988;10.318;2023-09-19T12:17:38;4.55;;;2.08;;
28180;SDS011;15464;50.988;10.318;2023-09-19T12:20:08;3.75;;;2.00;;
28180;SDS011;15464;50.988;10.318;2023-09-19T12:22:44;6.20;;;2.33;;
28180;SDS011;15464;50.988;10.318;2023-09-19T12:25:13;5.20;;;2.28;;
28180;SDS011;15464;50.988;10.318;2023-09-19T12:27:45;4.80;;;2.05;;
28180;SDS011;15464;50.988;10.318;2023-09-19T12:30:19;5.45;;;2.83;;
28180;SDS011;15464;50.988;10.318;2023-09-19T12:32:53;3.30;;;2.08;;
28180;SDS011;15464;50.988;10.318;2023-09-19T12:35:28;5.25;;;1.83;;
28180;SDS011;15464;50.988;10.318;2023-09-19T12:37:56;4.57;;;2.03;;
28180;SDS011;15464;50.988;10.318;2023-09-19T12:40:23;4.18;;;1.83;;
28180;SDS011;15464;50.988;10.318;2023-09-19T12:42:56;4.32;;;2.05;;
28180;SDS011;15464;50.988;10.318;2023-09-19T12:45:25;6.50;;;2.42;;
28180;SDS011;15464;50.988;10.318;2023-09-19T12:51:03;6.78;;;2.28;;
28180;SDS011;15464;50.988;10.318;2023-09-19T12:53:37;4.40;;;1.90;;
28180;SDS011;15464;50.988;10.318;2023-09-19T12:56:10;6.82;;;2.33;;
28180;SDS011;15464;50.988;10.318;2023-09-19T12:58:51;6.13;;;2.28;;
28180;SDS011;15464;50.988;10.318;2023-09-19T13:01:23;4.03;;;2.17;;
28180;SDS011;15464;50.988;10.318;2023-09-19T13:06:48;5.03;;;2.28;;
28180;SDS011;15464;50.988;10.318;2023-09-19T13:09:16;5.00;;;2.30;;
28180;SDS011;15464;50.988;10.318;2023-09-19T13:11:44;3.45;;;1.75;;
28180;SDS011;15464;50.988;10.318;2023-09-19T13:14:22;4.50;;;2.13;;
28180;SDS011;15464;50.988;10.318;2023-09-19T13:17:00;5.93;;;2.25;;
28180;SDS011;15464;50.988;10.318;2023-09-19T13:25:21;4.22;;;2.00;;
28180;SDS011;15464;50.988;10.318;2023-09-19T13:27:52;4.72;;;2.47;;
28180;SDS011;15464;50.988;10.318;2023-09-19T13:30:24;3.13;;;2.13;;
28180;SDS011;15464;50.988;10.318;2023-09-19T13:33:03;6.28;;;2.03;;
28180;SDS011;15464;50.988;10.318;2023-09-19T13:35:37;7.85;;;2.35;;
28180;SDS011;15464;50.988;10.318;2023-09-19T13:38:06;4.57;;;2.30;;
28180;SDS011;15464;50.988;10.318;2023-09-19T13:40:38;6.97;;;2.00;;
28180;SDS011;15464;50.988;10.318;2023-09-19T13:43:08;4.53;;;2.10;;
28180;SDS011;15464;50.988;10.318;2023-09-19T13:45:35;4.90;;;2.38;;
28180;SDS011;15464;50.988;10.318;2023-09-19T13:48:02;3.55;;;2.15;;
28180;SDS011;15464;50.988;10.318;2023-09-19T13:50:30;7.80;;;2.38;;
28180;SDS011;15464;50.988;10.318;2023-09-19T13:52:57;8.82;;;2.45;;
28180;SDS011;15464;50.988;10.318;2023-09-19T13:55:27;4.82;;;2.00;;
28180;SDS011;15464;50.988;10.318;2023-09-19T13:57:54;3.83;;;2.17;;
28180;SDS011;15464;50.988;10.318;2023-09-19T14:00:22;5.38;;;2.22;;
28180;SDS011;15464;50.988;10.318;2023-09-19T14:02:49;4.35;;;1.90;;
28180;SDS011;15464;50.988;10.318;2023-09-19T14:05:18;6.30;;;2.33;;
28180;SDS011;15464;50.988;10.318;2023-09-19T14:07:45;14.35;;;2.70;;
28180;SDS011;15464;50.988;10.318;2023-09-19T14:10:13;3.83;;;1.85;;
28180;SDS011;15464;50.988;10.318;2023-09-19T14:12:40;5.50;;;2.30;;
28180;SDS011;15464;50.988;10.318;2023-09-19T14:15:11;4.80;;;2.45;;
28180;SDS011;15464;50.988;10.318;2023-09-19T14:17:38;4.63;;;2.08;;
28180;SDS011;15464;50.988;10.318;2023-09-19T14:20:06;6.68;;;2.50;;
28180;SDS011;15464;50.988;10.318;2023-09-19T14:22:37;5.40;;;2.75;;
28180;SDS011;15464;50.988;10.318;2023-09-19T14:25:04;7.15;;;2.85;;
28180;SDS011;15464;50.988;10.318;2023-09-19T14:27:31;7.85;;;3.20;;
28180;SDS011;15464;50.988;10.318;2023-09-19T14:29:58;6.90;;;2.70;;
28180;SDS011;15464;50.988;10.318;2023-09-19T14:32:25;6.75;;;2.40;;
28180;SDS011;15464;50.988;10.318;2023-09-19T14:34:52;6.18;;;3.00;;
28180;SDS011;15464;50.988;10.318;2023-09-19T14:37:19;4.70;;;2.33;;
28180;SDS011;15464;50.988;10.318;2023-09-19T14:39:47;6.25;;;2.50;;
28180;SDS011;15464;50.988;10.318;2023-09-19T14:42:14;5.50;;;2.60;;
28180;SDS011;15464;50.988;10.318;2023-09-19T14:44:44;5.60;;;2.75;;
28180;SDS011;15464;50.988;10.318;2023-09-19T14:47:11;7.82;;;2.78;;
28180;SDS011;15464;50.988;10.318;2023-09-19T14:49:40;10.32;;;2.60;;
28180;SDS011;15464;50.988;10.318;2023-09-19T14:52:07;6.28;;;2.15;;
28180;SDS011;15464;50.988;10.318;2023-09-19T14:54:36;8.60;;;2.50;;
28180;SDS011;15464;50.988;10.318;2023-09-19T14:57:08;10.27;;;2.60;;
28180;SDS011;15464;50.988;10.318;2023-09-19T14:59:35;5.10;;;2.58;;
28180;SDS011;15464;50.988;10.318;2023-09-19T15:02:05;4.50;;;2.30;;
28180;SDS011;15464;50.988;10.318;2023-09-19T15:04:33;5.75;;;2.65;;
28180;SDS011;15464;50.988;10.318;2023-09-19T15:07:00;5.28;;;2.58;;
28180;SDS011;15464;50.988;10.318;2023-09-19T15:09:28;5.10;;;2.40;;
28180;SDS011;15464;50.988;10.318;2023-09-19T15:11:58;5.18;;;2.70;;
28180;SDS011;15464;50.988;10.318;2023-09-19T15:14:25;5.43;;;2.75;;
28180;SDS011;15464;50.988;10.318;2023-09-19T15:16:51;5.57;;;2.30;;
28180;SDS011;15464;50.988;10.318;2023-09-19T15:19:18;6.00;;;2.42;;
28180;SDS011;15464;50.988;10.318;2023-09-19T15:21:45;6.88;;;2.40;;
28180;SDS011;15464;50.988;10.318;2023-09-19T15:24:12;5.68;;;2.88;;
28180;SDS011;15464;50.988;10.318;2023-09-19T15:26:38;5.00;;;2.15;;
28180;SDS011;15464;50.988;10.318;2023-09-19T15:29:06;4.95;;;2.38;;
28180;SDS011;15464;50.988;10.318;2023-09-19T15:31:33;6.30;;;2.70;;
28180;SDS011;15464;50.988;10.318;2023-09-19T15:34:03;7.35;;;2.67;;
28180;SDS011;15464;50.988;10.318;2023-09-19T15:36:31;38.22;;;3.75;;
28180;SDS011;15464;50.988;10.318;2023-09-19T15:41:26;6.28;;;2.38;;
28180;SDS011;15464;50.988;10.318;2023-09-19T15:43:54;5.97;;;2.65;;
28180;SDS011;15464;50.988;10.318;2023-09-19T15:46:21;4.35;;;2.30;;
28180;SDS011;15464;50.988;10.318;2023-09-19T15:48:48;5.38;;;2.45;;
28180;SDS011;15464;50.988;10.318;2023-09-19T15:51:15;6.25;;;2.15;;
28180;SDS011;15464;50.988;10.318;2023-09-19T15:53:45;6.82;;;2.75;;
28180;SDS011;15464;50.988;10.318;2023-09-19T15:56:13;5.32;;;2.50;;
28180;SDS011;15464;50.988;10.318;2023-09-19T16:01:27;5.82;;;2.45;;
28180;SDS011;15464;50.988;10.318;2023-09-19T16:03:54;5.10;;;2.55;;
28180;SDS011;15464;50.988;10.318;2023-09-19T16:06:25;6.05;;;2.50;;
28180;SDS011;15464;50.988;10.318;2023-09-19T16:08:57;5.25;;;1.92;;
28180;SDS011;15464;50.988;10.318;2023-09-19T16:11:26;7.82;;;2.22;;
28180;SDS011;15464;50.988;10.318;2023-09-19T16:13:54;4.75;;;2.35;;
28180;SDS011;15464;50.988;10.318;2023-09-19T16:16:22;6.13;;;2.45;;